createdAt,value
2022-10-02T00:00:16.630Z,97.6
2022-10-02T00:06:06.242Z,98.7
2022-10-02T00:11:56.354Z,99
2022-10-02T00:17:47.038Z,99.1
2022-10-02T00:23:36.396Z,99.3
2022-10-02T00:29:26.256Z,99.5
2022-10-02T00:35:17.380Z,99.4
2022-10-02T00:41:11.487Z,99.2
2022-10-02T00:47:04.832Z,98
2022-10-02T00:52:54.089Z,98.6
2022-10-02T00:58:43.746Z,100
2022-10-02T01:04:34.545Z,100
2022-10-02T01:10:26.048Z,100
2022-10-02T01:16:15.784Z,100
2022-10-02T01:22:05.399Z,100
2022-10-02T01:27:55.009Z,100
2022-10-02T01:33:46.795Z,100
2022-10-02T01:39:36.293Z,100
2022-10-02T01:45:26.703Z,100
2022-10-02T01:51:16.558Z,100
2022-10-02T01:57:12.900Z,100
2022-10-02T02:03:02.756Z,100
2022-10-02T02:08:53.621Z,100
2022-10-02T02:14:50.825Z,100
2022-10-02T02:20:40.318Z,100
2022-10-02T02:26:30.175Z,100
2022-10-02T02:32:20.655Z,100
2022-10-02T02:38:09.507Z,100
2022-10-02T02:43:59.745Z,100
2022-10-02T02:49:48.842Z,100
2022-10-02T02:55:45.192Z,100
2022-10-02T03:01:35.225Z,100
2022-10-02T03:07:25.095Z,100
2022-10-02T03:13:15.322Z,100
2022-10-02T03:19:05.179Z,100
2022-10-02T03:24:55.255Z,100
2022-10-02T03:30:44.590Z,100
2022-10-02T03:36:34.472Z,100
2022-10-02T03:42:25.365Z,100
2022-10-02T03:48:15.248Z,100
2022-10-02T03:54:04.698Z,100
2022-10-02T03:59:54.383Z,100
2022-10-02T04:05:43.532Z,100
2022-10-02T04:11:34.831Z,100
2022-10-02T04:17:24.515Z,100
2022-10-02T04:23:15.140Z,100
2022-10-02T04:29:08.170Z,100
2022-10-02T04:34:59.957Z,100
2022-10-02T09:24:18.289Z,100
2022-10-02T09:37:07.598Z,100
2022-10-02T09:57:33.540Z,99.8
2022-10-02T10:43:08.711Z,97.3
2022-10-02T10:49:03.560Z,92.8
2022-10-02T10:54:53.840Z,94.2
2022-10-02T11:00:44.788Z,95.7
2022-10-02T11:06:37.014Z,94
2022-10-02T11:12:33.632Z,92
2022-10-02T11:18:24.269Z,92.2
2022-10-02T11:24:15.213Z,94.2
2022-10-02T11:30:07.254Z,93.1
2022-10-02T11:35:57.293Z,93.7
2022-10-02T11:41:48.385Z,92.4
2022-10-02T11:47:39.256Z,92.3
2022-10-02T11:53:29.896Z,91.2
2022-10-02T11:59:20.209Z,91.9
2022-10-02T12:05:09.181Z,90.9
2022-10-02T12:10:58.954Z,90
2022-10-02T12:16:49.349Z,90.5
2022-10-02T12:22:39.225Z,89.8
2022-10-02T12:28:29.303Z,90.4
2022-10-02T12:34:19.368Z,89.6
2022-10-02T12:40:09.523Z,93.9
2022-10-02T12:45:59.722Z,93.7
2022-10-02T12:51:50.677Z,92.8
2022-10-02T12:57:42.099Z,93.3
2022-10-02T13:03:34.046Z,89.3
2022-10-02T13:09:29.772Z,88.1
2022-10-02T13:15:26.517Z,86.2
2022-10-02T13:21:18.422Z,85.8
2022-10-02T13:27:09.011Z,85.4
2022-10-02T13:32:59.941Z,84.8
2022-10-02T13:38:51.066Z,84.2
2022-10-02T13:44:41.750Z,83.8
2022-10-02T13:50:32.956Z,84.8
2022-10-02T13:56:25.009Z,84
2022-10-02T14:02:19.748Z,84.3
2022-10-02T14:08:09.486Z,83.1
2022-10-02T14:14:05.441Z,83.7
2022-10-02T14:19:56.083Z,84.1
2022-10-02T14:25:46.726Z,84.2
2022-10-02T14:31:36.047Z,83.8
2022-10-02T14:37:30.001Z,83.4
2022-10-02T14:43:20.816Z,85
2022-10-02T14:49:11.537Z,84.2
2022-10-02T14:55:03.010Z,84.1
2022-10-02T15:00:53.396Z,84.5
2022-10-02T15:06:44.242Z,84
2022-10-02T15:12:34.890Z,84.4
2022-10-02T15:18:25.736Z,83.4
2022-10-02T15:24:16.728Z,83.7
2022-10-02T15:30:07.380Z,83.5
2022-10-02T15:35:58.472Z,84.2
2022-10-02T15:41:49.946Z,84.6
2022-10-02T15:47:40.841Z,84.8
2022-10-02T15:53:32.965Z,85.1
2022-10-02T15:59:23.936Z,85.9
2022-10-02T16:05:14.966Z,85.6
2022-10-02T16:11:06.860Z,86
2022-10-02T16:16:58.679Z,86.2
2022-10-02T16:22:50.095Z,87
2022-10-02T16:28:40.912Z,87.1
2022-10-02T16:34:33.007Z,88.2
2022-10-02T16:40:28.729Z,88.9
2022-10-02T16:46:21.286Z,88.8
2022-10-02T16:52:13.590Z,88.9
2022-10-02T16:58:04.238Z,89.9
2022-10-02T17:03:54.916Z,90.2
2022-10-02T17:09:45.815Z,90.6
2022-10-02T17:15:35.785Z,91.4
2022-10-02T17:21:26.651Z,92.2
2022-10-02T17:27:17.685Z,93
2022-10-02T17:33:09.744Z,93.5
2022-10-02T17:39:00.359Z,94.2
2022-10-02T17:44:50.783Z,94.8
2022-10-02T17:50:41.560Z,95.8
2022-10-02T17:56:33.011Z,95.9
2022-10-02T18:02:23.566Z,96.7
2022-10-02T18:08:16.520Z,96.7
2022-10-02T18:14:06.653Z,96.3
2022-10-02T18:19:57.313Z,97.1
2022-10-02T18:25:48.262Z,97
2022-10-02T18:31:56.953Z,96.6
2022-10-02T18:37:47.962Z,96.8
2022-10-02T18:43:39.242Z,97.6
2022-10-02T18:49:33.614Z,97.3
2022-10-02T18:55:23.736Z,98.3
2022-10-02T19:01:15.194Z,98.1
2022-10-02T19:07:06.723Z,98.5
2022-10-02T19:12:56.962Z,99.3
2022-10-02T19:18:47.465Z,98.7
2022-10-02T19:24:36.743Z,98.8
2022-10-02T19:30:28.472Z,98.7
2022-10-02T19:36:18.531Z,99.3
2022-10-02T19:42:10.355Z,100
2022-10-02T19:48:01.991Z,100
2022-10-02T19:53:53.386Z,100
2022-10-02T19:59:45.642Z,100
2022-10-02T20:05:36.082Z,100
2022-10-02T20:11:27.463Z,100
2022-10-02T20:17:19.990Z,100
2022-10-02T20:23:12.101Z,100
2022-10-02T20:29:03.538Z,100
2022-10-02T20:34:55.897Z,100
2022-10-02T20:40:47.256Z,100
2022-10-02T20:46:40.694Z,100
2022-10-02T20:52:40.330Z,100
2022-10-02T20:58:38.071Z,100
2022-10-02T21:04:32.673Z,100
2022-10-02T21:10:23.314Z,100
2022-10-02T21:16:21.278Z,100
2022-10-02T21:22:17.103Z,100
2022-10-02T21:28:27.712Z,100
2022-10-02T21:34:28.878Z,100
2022-10-02T21:46:40.001Z,100
2022-10-02T21:52:32.939Z,100
2022-10-02T21:58:45.939Z,100
2022-10-02T22:04:37.746Z,100
2022-10-02T22:10:29.439Z,100
2022-10-02T22:16:21.606Z,100
2022-10-02T22:22:16.100Z,100
2022-10-02T22:28:10.596Z,100
2022-10-02T22:34:06.891Z,100
2022-10-02T22:39:58.438Z,100
2022-10-02T22:45:51.360Z,100
2022-10-02T22:51:45.552Z,100
2022-10-02T22:57:36.455Z,100
2022-10-02T23:03:27.797Z,100
2022-10-02T23:09:22.195Z,100
2022-10-02T23:15:13.379Z,100
2022-10-02T23:21:09.508Z,100
2022-10-02T23:27:01.538Z,100
2022-10-02T23:32:53.522Z,100
2022-10-02T23:38:43.060Z,100
2022-10-02T23:44:35.023Z,100
2022-10-02T23:50:25.963Z,100
2022-10-02T23:56:16.142Z,100
